Time;durP1;ratioP1;P1;durP2;ratioP2;P2;SDS_P1;SDS_P2;PMS_P1;PMS_P2;Temp;Humidity;BMP_temperature;BMP_pressure;BME280_temperature;BME280_humidity;BME280_pressure;Samples;Min_cycle;Max_cycle;Signal;HPM_P1;HPM_P2
2021/11/07 00:04:09;;;;;;;9.88;6.57;;;;;;;9.83;55.96;102131.25;4969668;28;20043;-63
2021/11/07 00:07:25;;;;;;;14.40;7.43;;;;;;;9.85;55.92;102120.72;4969788;28;20470;-61
2021/11/07 00:09:32;;;;;;;10.45;6.82;;;;;;;9.86;55.98;102117.19;4962828;28;20572;-62
2021/11/07 00:12:01;;;;;;;10.80;6.63;;;;;;;9.86;55.80;102104.09;4969694;28;20043;-62
2021/11/07 00:14:28;;;;;;;10.00;6.78;;;;;;;9.86;55.71;102101.47;4970767;28;20043;-62
2021/11/07 00:16:56;;;;;;;11.75;6.80;;;;;;;9.85;55.95;102102.34;4973079;28;20050;-68
2021/11/07 00:22:37;;;;;;;10.07;6.95;;;;;;;9.79;56.07;102103.44;4955506;28;20082;-61
2021/11/07 00:25:03;;;;;;;10.07;6.03;;;;;;;9.78;55.99;102099.09;4967522;28;20047;-62
2021/11/07 00:27:34;;;;;;;9.52;6.00;;;;;;;9.74;56.00;102103.56;4971485;28;20098;-62
2021/11/07 00:37:59;;;;;;;6.80;5.30;;;;;;;9.71;55.94;102108.03;4976334;28;20051;-64
2021/11/07 00:42:59;;;;;;;8.35;5.25;;;;;;;9.71;56.03;102100.16;4976300;28;20480;-61
2021/11/07 00:46:09;;;;;;;9.02;5.05;;;;;;;9.73;56.13;102106.22;4974874;28;20106;-61
2021/11/07 00:48:26;;;;;;;8.90;4.40;;;;;;;9.73;56.13;102114.09;4973912;28;20093;-62
2021/11/07 00:51:06;;;;;;;6.30;4.35;;;;;;;9.75;56.34;102104.41;4976069;28;20047;-62
2021/11/07 00:56:17;;;;;;;6.20;4.38;;;;;;;9.72;56.04;102094.03;4975308;28;20051;-62
2021/11/07 00:59:12;;;;;;;7.68;4.45;;;;;;;9.71;55.94;102092.31;4976131;28;20057;-61
2021/11/07 01:01:37;;;;;;;7.97;4.57;;;;;;;9.68;56.10;102084.56;4972770;28;20039;-61
2021/11/07 01:04:06;;;;;;;5.32;4.30;;;;;;;9.68;55.98;102076.69;4975879;28;20136;-62
2021/11/07 01:06:34;;;;;;;7.03;4.57;;;;;;;9.67;55.77;102072.34;4970452;28;20487;-62
2021/11/07 01:09:01;;;;;;;7.38;4.50;;;;;;;9.66;55.77;102070.63;4975940;28;20051;-63
2021/11/07 01:11:28;;;;;;;6.00;4.13;;;;;;;9.65;55.90;102072.41;4975740;28;20461;-65
2021/11/07 01:13:55;;;;;;;5.97;4.15;;;;;;;9.67;55.62;102059.25;4975576;28;20522;-62
2021/11/07 01:16:23;;;;;;;4.75;3.63;;;;;;;9.66;55.79;102055.75;4975629;28;20050;-62
2021/11/07 01:18:50;;;;;;;7.28;4.40;;;;;;;9.64;55.87;102057.56;4974837;28;20050;-62
2021/11/07 01:21:18;;;;;;;7.68;4.13;;;;;;;9.59;55.83;102057.72;4975807;28;20496;-61
2021/11/07 01:24:02;;;;;;;7.18;3.60;;;;;;;9.58;55.77;102042.03;4975557;28;20047;-61
2021/11/07 01:26:39;;;;;;;6.70;3.58;;;;;;;9.56;55.72;102031.63;4974660;28;20497;-63
2021/11/07 01:31:34;;;;;;;7.63;3.42;;;;;;;9.54;55.78;102014.22;4975495;28;20051;-62
2021/11/07 01:34:02;;;;;;;5.03;3.30;;;;;;;9.59;55.83;102007.91;4974421;28;20590;-61
2021/11/07 01:39:21;;;;;;;5.13;3.05;;;;;;;9.52;55.92;102002.91;4975389;28;20055;-62
2021/11/07 01:44:22;;;;;;;4.53;3.00;;;;;;;9.48;55.84;102023.13;4975469;28;20082;-61
2021/11/07 01:46:52;;;;;;;3.78;2.95;;;;;;;9.48;55.74;102017.88;4974861;28;20539;-62
2021/11/07 01:49:23;;;;;;;4.55;3.45;;;;;;;9.49;55.70;102019.59;4975340;28;20491;-61
2021/11/07 01:51:53;;;;;;;5.47;2.70;;;;;;;9.51;55.62;102004.69;4973148;28;20492;-62
2021/11/07 01:54:27;;;;;;;4.72;3.20;;;;;;;9.50;55.52;101995.13;4975289;28;20118;-62
2021/11/07 01:56:55;;;;;;;4.57;3.03;;;;;;;9.53;55.47;101987.16;4973894;28;20047;-67
2021/11/07 01:59:21;;;;;;;5.78;3.30;;;;;;;9.54;55.25;101985.41;4975104;28;20055;-62
2021/11/07 02:01:58;;;;;;;4.63;2.83;;;;;;;9.53;55.53;101984.53;4974865;28;20043;-62
2021/11/07 02:04:24;;;;;;;5.30;2.80;;;;;;;9.52;55.64;101985.44;4975055;28;20050;-63
2021/11/07 02:06:51;;;;;;;5.88;2.88;;;;;;;9.49;55.69;101996.03;4974877;28;20102;-62
2021/11/07 02:09:18;;;;;;;5.60;2.90;;;;;;;9.43;55.96;101986.59;4973894;28;20048;-62
2021/11/07 02:11:45;;;;;;;4.55;2.70;;;;;;;9.40;56.09;101983.22;4974686;28;20125;-63
2021/11/07 02:14:11;;;;;;;5.72;3.00;;;;;;;9.39;56.09;101971.03;4975022;28;20105;-61
2021/11/07 02:16:38;;;;;;;5.18;3.17;;;;;;;9.37;56.09;101978.94;4974682;28;20131;-61
2021/11/07 02:19:05;;;;;;;5.60;3.22;;;;;;;9.35;56.03;101972.88;4974536;28;20074;-61
2021/11/07 02:21:32;;;;;;;3.83;2.92;;;;;;;9.33;56.08;101972.06;4974640;28;20079;-61
2021/11/07 02:24:00;;;;;;;4.18;3.10;;;;;;;9.33;55.97;101977.28;4974586;28;20480;-62
2021/11/07 02:26:27;;;;;;;4.45;2.83;;;;;;;9.32;55.94;101986.94;4973602;28;20130;-61
2021/11/07 02:28:54;;;;;;;5.68;3.00;;;;;;;9.36;55.83;101982.47;4974451;28;20047;-62
2021/11/07 02:31:21;;;;;;;4.78;2.83;;;;;;;9.39;55.70;101978.88;4974304;28;20050;-66
2021/11/07 02:33:48;;;;;;;3.72;2.65;;;;;;;9.43;56.00;101981.38;4974679;28;20113;-62
2021/11/07 02:36:17;;;;;;;4.35;2.60;;;;;;;9.47;55.79;101982.97;4974001;28;20578;-66
2021/11/07 02:38:46;;;;;;;4.18;2.63;;;;;;;9.49;55.80;101996.03;4974184;28;20113;-63
2021/11/07 02:41:13;;;;;;;5.55;2.63;;;;;;;9.54;55.75;101996.72;4974164;28;20050;-62
2021/11/07 02:43:52;;;;;;;5.45;2.75;;;;;;;9.56;55.70;101992.31;4974261;28;20491;-61
2021/11/07 02:46:18;;;;;;;4.18;2.80;;;;;;;9.59;55.83;101988.72;4972851;28;20047;-61
2021/11/07 02:48:47;;;;;;;5.00;2.88;;;;;;;9.62;55.90;101993.84;4974164;28;20050;-62
2021/11/07 02:51:15;;;;;;;4.57;3.00;;;;;;;9.62;56.25;101988.63;4960314;28;20079;-61
2021/11/07 02:53:42;;;;;;;4.82;2.63;;;;;;;9.66;56.29;101984.13;4961017;28;20109;-61
2021/11/07 02:56:10;;;;;;;5.03;2.83;;;;;;;9.66;56.45;101971.03;4974156;28;20109;-61
2021/11/07 02:58:37;;;;;;;4.88;2.95;;;;;;;9.70;56.40;101973.50;4973856;28;20182;-62
2021/11/07 03:01:04;;;;;;;5.38;3.05;;;;;;;9.73;56.62;101980.41;4973784;28;20047;-62
2021/11/07 03:03:31;;;;;;;4.57;2.75;;;;;;;9.76;56.68;101977.69;4973065;28;20492;-62
2021/11/07 03:06:01;;;;;;;4.93;3.17;;;;;;;9.73;57.00;101969.94;4973845;28;20113;-61
2021/11/07 03:08:29;;;;;;;5.55;3.00;;;;;;;9.73;57.10;101962.06;4973887;28;20047;-62
2021/11/07 03:10:58;;;;;;;4.03;2.67;;;;;;;9.74;57.28;101958.53;4973801;28;20062;-65
2021/11/07 03:13:25;;;;;;;3.47;2.88;;;;;;;9.77;57.30;101958.44;4973831;28;20047;-62
2021/11/07 03:15:52;;;;;;;5.20;3.17;;;;;;;9.79;57.26;101962.72;4973258;28;20055;-62
2021/11/07 03:18:19;;;;;;;7.00;3.20;;;;;;;9.82;57.36;101974.00;4972708;28;20094;-68
2021/11/07 03:20:46;;;;;;;4.55;2.95;;;;;;;9.78;57.56;101984.59;4973478;28;20098;-62
2021/11/07 03:23:20;;;;;;;4.53;2.90;;;;;;;9.84;57.29;101983.53;4972534;28;20093;-61
2021/11/07 03:25:50;;;;;;;4.57;2.70;;;;;;;9.88;57.31;101987.75;4973403;28;20106;-64
2021/11/07 03:28:17;;;;;;;3.88;2.42;;;;;;;9.91;57.28;101982.41;4973682;28;20094;-61
2021/11/07 03:33:30;;;;;;;4.20;2.15;;;;;;;9.97;57.14;101979.56;4973378;28;20046;-67
2021/11/07 03:36:00;;;;;;;3.92;2.28;;;;;;;9.97;57.26;101970.84;4972341;28;20069;-64
2021/11/07 03:38:27;;;;;;;5.07;2.70;;;;;;;10.01;57.22;101963.75;4973312;28;20054;-61
2021/11/07 03:40:54;;;;;;;4.60;2.20;;;;;;;10.00;57.13;101962.88;4973384;28;20095;-61
2021/11/07 03:43:25;;;;;;;2.67;2.00;;;;;;;10.00;57.39;101967.28;4973244;28;20089;-62
2021/11/07 03:45:52;;;;;;;3.58;2.30;;;;;;;10.05;57.10;101965.34;4973167;28;20495;-62
2021/11/07 03:48:19;;;;;;;3.20;1.73;;;;;;;10.08;56.68;101962.59;4973631;28;20439;-62
2021/11/07 03:50:46;;;;;;;3.85;2.03;;;;;;;10.07;56.64;101955.69;4975394;28;20105;-61
2021/11/07 03:53:13;;;;;;;2.65;1.80;;;;;;;10.10;56.44;101948.53;4977347;28;20051;-67
2021/11/07 03:55:39;;;;;;;5.90;1.80;;;;;;;10.11;56.33;101954.66;4977343;28;20113;-62
2021/11/07 03:58:06;;;;;;;2.28;1.75;;;;;;;10.17;56.10;101956.19;4977135;28;20054;-62
2021/11/07 04:00:33;;;;;;;2.20;1.50;;;;;;;10.20;55.94;101959.56;4977272;28;20090;-67
2021/11/07 04:03:00;;;;;;;3.75;1.70;;;;;;;10.24;55.58;101973.44;4974062;28;20483;-62
2021/11/07 04:05:27;;;;;;;2.50;2.00;;;;;;;10.23;55.39;101979.59;4973848;28;20050;-62
2021/11/07 04:07:54;;;;;;;3.40;1.75;;;;;;;10.25;55.31;101986.47;4972693;28;20047;-61
2021/11/07 04:10:20;;;;;;;2.80;1.83;;;;;;;10.27;55.25;101996.91;4973654;28;20093;-66
2021/11/07 04:12:47;;;;;;;3.45;1.70;;;;;;;10.30;55.34;101986.34;4973608;28;20109;-61
2021/11/07 04:15:14;;;;;;;2.92;2.10;;;;;;;10.30;55.18;101994.19;4973571;28;20053;-62
2021/11/07 04:17:41;;;;;;;3.72;2.08;;;;;;;10.28;55.19;101996.88;4973466;28;20053;-63
2021/11/07 04:20:09;;;;;;;3.10;2.10;;;;;;;10.29;55.57;102005.59;4973808;28;20121;-68
2021/11/07 04:22:36;;;;;;;3.78;1.88;;;;;;;10.27;55.98;102008.28;4973442;28;20051;-62
2021/11/07 04:25:05;;;;;;;3.35;1.90;;;;;;;10.29;56.39;102016.09;4973446;28;20051;-61
2021/11/07 04:27:32;;;;;;;5.45;3.28;;;;;;;10.28;56.68;102025.75;4972303;28;20496;-62
2021/11/07 04:29:59;;;;;;;4.63;2.33;;;;;;;10.28;57.05;102035.38;4973327;28;20054;-61
2021/11/07 04:32:26;;;;;;;3.58;2.35;;;;;;;10.25;57.23;102041.56;4973390;28;20051;-62
2021/11/07 04:34:53;;;;;;;3.38;2.60;;;;;;;10.26;57.38;102040.69;4973237;28;20633;-61
2021/11/07 04:37:21;;;;;;;7.15;2.70;;;;;;;10.25;57.74;102025.84;4973322;28;20062;-61
2021/11/07 04:39:47;;;;;;;7.32;2.75;;;;;;;10.25;57.76;101999.59;4973008;28;20055;-61
2021/11/07 04:42:14;;;;;;;7.70;2.58;;;;;;;10.25;58.01;101980.41;4972300;28;20042;-62
2021/11/07 04:44:41;;;;;;;4.00;2.20;;;;;;;10.25;58.29;101976.00;4972930;28;20081;-61
2021/11/07 04:47:08;;;;;;;5.25;2.80;;;;;;;10.24;58.29;101986.53;4973198;28;20050;-62
2021/11/07 04:49:35;;;;;;;3.20;2.67;;;;;;;10.26;58.18;101993.44;4973055;28;20086;-61
2021/11/07 04:52:03;;;;;;;4.97;2.63;;;;;;;10.27;58.17;101995.16;4973134;28;20047;-61
2021/11/07 04:54:31;;;;;;;4.63;2.28;;;;;;;10.26;58.30;101979.50;4972971;28;20558;-62
2021/11/07 04:56:58;;;;;;;3.72;2.38;;;;;;;10.24;58.28;101953.28;4972692;28;20050;-67
2021/11/07 04:59:25;;;;;;;4.65;2.30;;;;;;;10.23;58.59;101922.75;4971906;28;20078;-62
2021/11/07 05:01:52;;;;;;;5.50;2.50;;;;;;;10.22;58.75;101914.91;4973113;28;20039;-61
2021/11/07 05:04:19;;;;;;;4.22;2.08;;;;;;;10.20;58.96;101895.75;4973217;28;20042;-62
2021/11/07 05:06:49;;;;;;;3.67;2.03;;;;;;;10.20;58.96;101898.38;4972393;28;20101;-62
2021/11/07 05:09:16;;;;;;;4.15;2.03;;;;;;;10.14;58.98;101891.56;4973016;28;20050;-62
2021/11/07 05:11:43;;;;;;;7.07;2.42;;;;;;;10.06;59.37;101898.88;4972618;28;20504;-61
2021/11/07 05:14:09;;;;;;;3.40;2.28;;;;;;;10.06;59.66;101898.88;4972746;28;20051;-62
2021/11/07 05:16:36;;;;;;;3.70;2.00;;;;;;;10.02;59.75;101898.13;4971601;28;20105;-61
2021/11/07 05:19:04;;;;;;;4.32;2.10;;;;;;;10.00;59.84;101899.94;4972342;28;20078;-62
2021/11/07 05:21:30;;;;;;;2.67;1.98;;;;;;;9.99;59.76;101895.59;4972559;28;20451;-62
2021/11/07 05:23:57;;;;;;;4.80;2.20;;;;;;;9.96;59.65;101907.06;4972316;28;20057;-62
2021/11/07 05:26:24;;;;;;;4.13;2.20;;;;;;;9.93;59.88;101907.19;4972295;28;20082;-61
2021/11/07 05:28:51;;;;;;;3.30;1.80;;;;;;;9.91;59.83;101916.00;4972531;28;20046;-61
2021/11/07 05:31:18;;;;;;;2.75;2.00;;;;;;;9.89;59.62;101908.19;4972017;28;20491;-62
2021/11/07 05:33:45;;;;;;;2.42;2.10;;;;;;;9.87;59.49;101906.53;4971164;28;20093;-61
2021/11/07 05:36:12;;;;;;;4.05;2.95;;;;;;;9.88;59.40;101900.38;4972220;28;20043;-62
2021/11/07 05:38:39;;;;;;;3.97;2.20;;;;;;;9.89;59.19;101910.81;4972332;28;20065;-62
2021/11/07 05:41:06;;;;;;;3.20;2.28;;;;;;;9.89;59.38;101918.69;4972006;28;20567;-61
2021/11/07 05:43:33;;;;;;;5.15;1.90;;;;;;;9.87;59.47;101911.78;4972205;28;20102;-61
2021/11/07 05:45:59;;;;;;;2.92;2.10;;;;;;;9.87;59.47;101907.38;4971977;28;20051;-64
2021/11/07 05:48:26;;;;;;;3.50;2.35;;;;;;;9.89;59.58;101902.97;4971948;28;20050;-61
2021/11/07 05:50:53;;;;;;;2.80;2.15;;;;;;;9.92;59.64;101899.38;4971460;28;20503;-61
2021/11/07 05:53:20;;;;;;;7.28;2.30;;;;;;;9.93;59.77;101903.72;4971930;28;20043;-61
2021/11/07 05:55:46;;;;;;;3.75;2.28;;;;;;;9.93;59.78;101903.72;4971953;28;20079;-62
2021/11/07 05:58:13;;;;;;;4.30;2.88;;;;;;;9.90;59.92;101923.03;4971780;28;20055;-61
2021/11/07 06:00:40;;;;;;;3.28;2.20;;;;;;;9.86;60.20;101921.41;4971765;28;20058;-62
2021/11/07 06:03:07;;;;;;;4.82;2.70;;;;;;;9.87;60.35;101901.31;4971804;28;20138;-62
2021/11/07 06:05:35;;;;;;;4.28;2.00;;;;;;;9.87;60.48;101890.81;4970806;28;20043;-66
2021/11/07 06:08:03;;;;;;;2.63;2.00;;;;;;;9.86;60.51;101892.56;4971600;28;20054;-63
2021/11/07 06:10:34;;;;;;;6.60;2.60;;;;;;;9.88;60.59;101901.25;4971650;28;20101;-62
2021/11/07 06:13:00;;;;;;;7.18;3.38;;;;;;;9.86;60.60;101884.69;4971025;28;20078;-61
2021/11/07 06:15:27;;;;;;;4.25;2.75;;;;;;;9.85;60.65;101893.47;4971356;28;20050;-61
2021/11/07 06:17:56;;;;;;;5.95;2.90;;;;;;;9.86;60.57;101900.44;4971109;28;20106;-63
2021/11/07 06:20:22;;;;;;;4.78;2.90;;;;;;;9.85;60.44;101906.56;4971509;28;20195;-61
2021/11/07 06:22:55;;;;;;;5.45;2.75;;;;;;;9.83;60.63;101915.41;4970111;28;20547;-61
2021/11/07 06:25:36;;;;;;;4.00;2.55;;;;;;;9.80;60.75;101912.00;4970691;28;20232;-62
2021/11/07 06:28:08;;;;;;;4.65;2.70;;;;;;;9.85;60.83;101905.72;4971281;28;20046;-62
2021/11/07 06:30:35;;;;;;;4.90;2.55;;;;;;;9.86;60.79;101904.81;4971168;28;20106;-62
2021/11/07 06:33:03;;;;;;;5.85;2.75;;;;;;;9.88;60.77;101905.59;4970784;28;20046;-62
2021/11/07 06:35:30;;;;;;;4.22;2.70;;;;;;;9.91;60.70;101919.47;4971080;28;20113;-62
2021/11/07 06:37:57;;;;;;;5.03;3.10;;;;;;;9.92;60.68;101931.69;4970727;28;20058;-59
2021/11/07 06:40:23;;;;;;;5.05;2.67;;;;;;;9.97;60.65;101944.63;4970255;28;20102;-59
2021/11/07 06:42:50;;;;;;;3.67;2.53;;;;;;;10.01;60.63;101948.88;4970927;28;20496;-60
2021/11/07 06:45:17;;;;;;;4.78;3.10;;;;;;;10.04;60.72;101946.13;4970783;28;20046;-61
2021/11/07 06:47:44;;;;;;;5.93;2.97;;;;;;;10.04;60.45;101953.13;4970606;28;20046;-62
2021/11/07 06:50:12;;;;;;;3.08;2.45;;;;;;;10.06;60.35;101956.56;4970626;28;20522;-62
2021/11/07 06:52:40;;;;;;;4.97;2.72;;;;;;;10.06;60.36;101943.47;4970826;28;20097;-62
2021/11/07 06:55:08;;;;;;;6.95;2.85;;;;;;;10.09;60.40;101940.72;4969851;28;20655;-61
2021/11/07 06:57:35;;;;;;;5.35;2.83;;;;;;;10.07;60.32;101932.91;4971132;28;20050;-61
2021/11/07 07:00:06;;;;;;;4.13;2.72;;;;;;;10.10;60.01;101929.31;4970766;28;20054;-63
2021/11/07 07:02:33;;;;;;;4.68;2.88;;;;;;;10.10;60.01;101927.53;4970984;28;20062;-62
2021/11/07 07:05:02;;;;;;;5.70;2.85;;;;;;;10.11;60.20;101924.03;4970616;28;20047;-62
2021/11/07 07:07:33;;;;;;;5.75;2.83;;;;;;;10.10;60.49;101927.53;4970791;28;20082;-64
2021/11/07 07:10:01;;;;;;;7.95;3.67;;;;;;;10.12;60.36;101925.75;4969271;28;20050;-62
2021/11/07 07:12:31;;;;;;;6.95;2.90;;;;;;;10.13;60.41;101924.84;4970548;28;20050;-65
2021/11/07 07:21:12;;;;;;;8.63;3.22;;;;;;;10.21;60.23;101934.16;4968644;28;20381;-60
2021/11/07 07:28:52;;;;;;;7.43;3.30;;;;;;;10.28;60.64;101927.81;4970739;28;20050;-59
2021/11/07 07:32:11;;;;;;;4.90;3.40;;;;;;;10.32;60.69;101933.81;4970170;28;20082;-59
2021/11/07 07:34:10;;;;;;;5.93;3.70;;;;;;;10.35;60.72;101933.66;4964932;28;20054;-62
2021/11/07 07:36:37;;;;;;;5.07;4.20;;;;;;;10.38;60.47;101931.81;4969984;28;20499;-59
2021/11/07 07:39:05;;;;;;;4.95;3.17;;;;;;;10.48;60.23;101934.97;4970143;28;20059;-61
2021/11/07 07:41:32;;;;;;;5.05;3.58;;;;;;;10.51;60.28;101942.72;4970200;28;20384;-61
2021/11/07 07:44:03;;;;;;;5.30;3.50;;;;;;;10.56;60.28;101947.81;4969208;28;20492;-62
2021/11/07 07:46:30;;;;;;;7.38;3.75;;;;;;;10.58;60.27;101938.97;4970073;28;20043;-61
2021/11/07 07:48:58;;;;;;;4.75;3.53;;;;;;;10.60;60.30;101944.16;4970283;28;20051;-63
2021/11/07 07:51:26;;;;;;;5.32;3.70;;;;;;;10.61;60.24;101945.88;4965339;28;20464;-63
2021/11/07 07:53:53;;;;;;;6.43;3.70;;;;;;;10.60;60.49;101942.41;4958042;28;20499;-65
2021/11/07 07:56:20;;;;;;;7.85;3.38;;;;;;;10.63;60.48;101938.81;4969876;28;20043;-63
2021/11/07 07:58:46;;;;;;;6.05;3.50;;;;;;;10.66;60.39;101936.06;4968997;28;20070;-64
2021/11/07 08:01:13;;;;;;;8.00;3.55;;;;;;;10.72;60.41;101937.59;4969694;28;20487;-63
2021/11/07 08:03:40;;;;;;;9.85;3.50;;;;;;;10.74;60.23;101936.63;4969944;28;20097;-64
2021/11/07 08:06:06;;;;;;;5.95;3.53;;;;;;;10.80;59.89;101932.06;4969634;28;20094;-63
2021/11/07 08:08:33;;;;;;;5.05;3.45;;;;;;;10.83;59.74;101932.81;4969741;28;20129;-62
2021/11/07 08:11:00;;;;;;;5.45;3.65;;;;;;;10.85;59.52;101928.31;4969831;28;20043;-63
2021/11/07 08:13:27;;;;;;;5.60;3.25;;;;;;;10.87;59.69;101936.13;4965037;28;20074;-62
2021/11/07 08:15:54;;;;;;;4.88;3.60;;;;;;;10.89;59.55;101937.81;4953848;28;20083;-63
2021/11/07 08:18:21;;;;;;;6.43;3.33;;;;;;;10.93;59.60;101938.53;4951872;28;20493;-59
2021/11/07 08:20:49;;;;;;;6.82;3.53;;;;;;;10.85;59.94;101930.94;4952714;28;20611;-62
2021/11/07 08:23:20;;;;;;;5.53;3.85;;;;;;;10.91;59.87;101929.88;4969802;28;20074;-61
2021/11/07 08:25:46;;;;;;;5.97;3.10;;;;;;;10.95;59.88;101931.47;4969392;28;20054;-61
2021/11/07 08:28:16;;;;;;;5.45;3.13;;;;;;;10.94;60.01;101928.00;4970041;28;20043;-61
2021/11/07 08:30:43;;;;;;;5.35;3.83;;;;;;;11.02;59.99;101916.31;4969549;28;20058;-60
2021/11/07 08:33:11;;;;;;;4.55;3.30;;;;;;;11.08;59.90;101922.19;4969066;28;20054;-60
2021/11/07 08:35:40;;;;;;;3.60;3.05;;;;;;;11.09;60.29;101923.03;4970805;28;20388;-59
2021/11/07 08:38:19;;;;;;;8.52;3.30;;;;;;;11.09;60.17;101923.03;4972844;28;20047;-61
2021/11/07 08:41:04;;;;;;;3.40;2.63;;;;;;;11.07;60.03;101930.09;4967434;28;20487;-60
2021/11/07 09:05:26;;;;;;;46.53;29.63;;;;;;;11.22;58.89;101921.63;4970235;28;20050;-60
2021/11/07 09:10:24;;;;;;;11.73;9.88;;;;;;;11.20;58.63;101919.97;4969038;28;20051;-62
2021/11/07 09:12:51;;;;;;;9.20;7.80;;;;;;;11.28;58.24;101929.25;4962645;28;20089;-60
2021/11/07 09:15:20;;;;;;;10.18;6.80;;;;;;;11.29;58.05;101924.88;4968968;28;20059;-60
2021/11/07 09:17:48;;;;;;;10.82;6.88;;;;;;;11.30;58.10;101934.47;4972205;28;20054;-61
2021/11/07 09:20:31;;;;;;;11.52;8.20;;;;;;;11.41;57.84;101929.63;4972458;28;20054;-60
2021/11/07 09:23:09;;;;;;;114.03;81.68;;;;;;;11.49;57.86;101924.06;4961107;28;20049;-66
2021/11/07 09:28:16;;;;;;;32.30;21.42;;;;;;;11.59;57.42;101922.75;4972045;28;20054;-61
2021/11/07 09:31:00;;;;;;;27.30;18.95;;;;;;;11.63;57.45;101917.34;4956531;28;20135;-61
2021/11/07 09:33:45;;;;;;;25.30;17.83;;;;;;;11.67;57.23;101908.41;4954207;28;20050;-59
2021/11/07 09:36:18;;;;;;;16.38;12.48;;;;;;;11.76;56.94;101908.88;4958844;28;20082;-59
2021/11/07 09:38:51;;;;;;;17.08;11.38;;;;;;;11.82;56.74;101910.41;4952640;28;20063;-58
2021/11/07 09:43:56;;;;;;;14.75;8.20;;;;;;;12.04;56.22;101893.72;4953743;28;20047;-61
2021/11/07 09:49:00;;;;;;;25.33;13.23;;;;;;;12.29;55.46;101884.69;4970698;28;20526;-60
2021/11/07 09:51:35;;;;;;;19.15;11.27;;;;;;;12.39;55.25;101878.97;4971267;28;20054;-57
2021/11/07 09:54:03;;;;;;;27.35;15.63;;;;;;;12.46;55.15;101876.03;4971725;28;20058;-59
2021/11/07 09:56:30;;;;;;;39.55;22.52;;;;;;;12.88;54.04;101867.03;4966452;28;20500;-60
2021/11/07 09:58:59;;;;;;;34.75;18.05;;;;;;;13.88;51.19;101855.91;4971920;28;20058;-60
2021/11/07 10:01:31;;;;;;;17.63;10.10;;;;;;;13.52;51.94;101855.09;4971651;28;20057;-58
2021/11/07 10:03:59;;;;;;;38.67;21.23;;;;;;;13.74;51.21;101847.84;4971775;28;20054;-58
2021/11/07 10:06:45;;;;;;;36.70;20.08;;;;;;;13.51;51.50;101839.34;4971575;28;20051;-57
2021/11/07 10:09:13;;;;;;;31.50;14.93;;;;;;;13.28;52.13;101824.66;4971590;28;20051;-59
2021/11/07 10:12:01;;;;;;;29.45;15.30;;;;;;;13.21;52.04;101835.50;4970248;28;20058;-58
2021/11/07 10:15:00;;;;;;;25.30;14.05;;;;;;;13.22;52.06;101829.31;4971428;28;20496;-59
2021/11/07 10:20:30;;;;;;;117.65;61.25;;;;;;;13.51;51.13;101813.84;4953334;28;20044;-58
2021/11/07 10:23:17;;;;;;;36.13;21.10;;;;;;;13.54;50.92;101813.66;4969134;28;20054;-58
2021/11/07 10:25:56;;;;;;;31.48;20.48;;;;;;;13.79;50.49;101819.44;4952322;28;20214;-58
2021/11/07 10:28:29;;;;;;;24.92;16.45;;;;;;;14.19;49.21;101807.59;4953416;28;20074;-59
2021/11/07 10:31:05;;;;;;;26.48;16.60;;;;;;;14.25;48.68;101787.91;4951862;28;20103;-58
2021/11/07 10:33:49;;;;;;;;;;;;;;;14.64;47.70;101791.94;4960346;28;20415;-58
2021/11/07 10:52:39;;;;;;;11.93;7.60;;;;;;;14.01;48.36;101754.00;4962385;28;20054;-60
2021/11/07 10:55:23;;;;;;;11.25;8.27;;;;;;;14.01;48.22;101750.53;4970438;28;20496;-61
2021/11/07 10:57:57;;;;;;;10.05;6.10;;;;;;;13.91;48.31;101746.69;4970823;28;20050;-63
2021/11/07 11:00:31;;;;;;;10.23;8.15;;;;;;;13.90;48.05;101743.19;4970436;28;20066;-57
2021/11/07 11:03:11;;;;;;;8.93;7.20;;;;;;;13.87;47.75;101738.09;4969597;28;20130;-58
2021/11/07 11:05:52;;;;;;;26.13;15.65;;;;;;;13.84;47.83;101736.47;4970504;28;20046;-57
2021/11/07 11:08:27;;;;;;;54.55;46.15;;;;;;;13.81;47.72;101727.88;4970520;28;20069;-62
2021/11/07 11:14:09;;;;;;;27.50;23.10;;;;;;;13.74;47.62;101722.09;4955220;28;20047;-61
2021/11/07 11:35:36;;;;;;;17.95;12.75;;;;;;;15.20;43.86;101667.09;4960963;28;20066;-60
2021/11/07 11:38:16;;;;;;;50.30;33.92;;;;;;;15.29;44.05;101670.97;4969573;28;20462;-61
2021/11/07 11:43:40;;;;;;;13.05;9.30;;;;;;;14.57;45.91;101655.00;4969689;28;20039;-61
2021/11/07 11:46:18;;;;;;;15.43;10.15;;;;;;;14.44;46.12;101644.28;4968822;28;20061;-61
2021/11/07 11:57:29;;;;;;;30.58;22.10;;;;;;;14.65;45.98;101627.22;4961794;28;20054;-63
2021/11/07 12:03:06;;;;;;;9.65;8.65;;;;;;;15.17;45.26;101624.97;4962684;28;20082;-61
2021/11/07 12:05:48;;;;;;;8.07;7.28;;;;;;;15.31;44.94;101624.09;4970231;28;20043;-64
2021/11/07 12:08:25;;;;;;;7.60;5.53;;;;;;;15.66;44.28;101618.38;4968794;28;20047;-61
2021/11/07 12:11:15;;;;;;;6.43;5.00;;;;;;;15.59;44.49;101611.78;4972272;28;20514;-62
2021/11/07 12:13:55;;;;;;;9.05;6.53;;;;;;;15.70;44.22;101613.75;4973264;28;20495;-60
2021/11/07 12:16:59;;;;;;;14.75;10.55;;;;;;;15.97;43.67;101608.47;4961022;28;20043;-61
2021/11/07 12:19:31;;;;;;;14.18;9.73;;;;;;;15.98;43.79;101597.78;4932961;29;20075;-65
2021/11/07 12:22:10;;;;;;;7.57;5.05;;;;;;;15.81;44.25;101601.53;4967035;28;20142;-61
2021/11/07 12:24:58;;;;;;;5.78;4.10;;;;;;;15.39;44.77;101599.81;4973387;28;20051;-61
2021/11/07 12:27:49;;;;;;;10.52;7.32;;;;;;;15.58;44.51;101597.72;4973437;28;20058;-61
2021/11/07 12:30:43;;;;;;;32.40;19.30;;;;;;;15.16;45.06;101592.41;4973611;28;20046;-61
2021/11/07 12:33:17;;;;;;;7.25;4.00;;;;;;;15.49;45.02;101587.69;4971675;28;20105;-60
2021/11/07 12:36:12;;;;;;;2.83;2.40;;;;;;;15.26;47.57;101576.81;4971190;28;20062;-63
2021/11/07 12:41:41;;;;;;;6.75;4.35;;;;;;;15.94;44.51;101555.75;4900881;29;20052;-60
2021/11/07 12:44:20;;;;;;;3.17;1.90;;;;;;;16.46;42.98;101549.56;4913493;29;20457;-60
2021/11/07 12:49:26;;;;;;;4.13;2.13;;;;;;;15.99;43.41;101553.63;4973157;28;20105;-60
2021/11/07 12:52:16;;;;;;;2.92;2.60;;;;;;;16.10;43.87;101555.56;4972335;28;20076;-60
2021/11/07 12:54:44;;;;;;;4.70;2.40;;;;;;;15.54;45.05;101553.03;4966621;28;20051;-60
2021/11/07 12:57:19;;;;;;;4.53;3.15;;;;;;;15.28;45.80;101540.53;4972388;28;20634;-60
2021/11/07 12:59:47;;;;;;;4.95;3.13;;;;;;;15.05;47.17;101533.22;4972817;28;20054;-60
2021/11/07 13:02:30;;;;;;;3.97;3.33;;;;;;;14.88;47.87;101531.63;4972958;28;20043;-58
2021/11/07 13:05:30;;;;;;;4.93;3.40;;;;;;;14.67;48.90;101532.84;4972850;28;20507;-61
2021/11/07 13:10:33;;;;;;;8.40;3.78;;;;;;;14.45;50.54;101524.50;4961272;28;20059;-61
2021/11/07 13:13:09;;;;;;;3.70;3.00;;;;;;;14.38;51.02;101524.03;4953764;28;20491;-60
2021/11/07 13:18:48;;;;;;;7.35;4.25;;;;;;;14.31;51.64;101525.31;4963379;28;20491;-60
2021/11/07 13:29:32;;;;;;;10.35;6.15;;;;;;;14.89;49.87;101520.13;4966932;28;20082;-61
2021/11/07 13:34:34;;;;;;;7.40;3.92;;;;;;;15.16;48.96;101520.16;4972234;28;20047;-61
2021/11/07 13:37:03;;;;;;;9.68;8.20;;;;;;;15.54;47.15;101518.63;4971870;28;20054;-60
2021/11/07 13:39:36;;;;;;;4.60;2.50;;;;;;;15.72;46.24;101509.50;4971955;28;20062;-60
2021/11/07 13:42:12;;;;;;;9.05;4.72;;;;;;;15.59;45.79;101511.25;4971962;28;20484;-60
2021/11/07 13:45:02;;;;;;;95.55;47.83;;;;;;;15.33;45.50;101505.88;4971867;28;20043;-61
2021/11/07 13:47:33;;;;;;;20.65;15.43;;;;;;;15.19;45.94;101507.59;4970633;28;20341;-60
2021/11/07 13:50:03;;;;;;;23.88;17.25;;;;;;;14.88;45.99;101505.19;4971888;28;20046;-61
2021/11/07 13:52:32;;;;;;;16.45;11.90;;;;;;;14.69;46.19;101496.63;4972045;28;20042;-60
2021/11/07 13:55:00;;;;;;;7.18;5.57;;;;;;;14.63;46.19;101494.34;4971773;28;20377;-65
2021/11/07 13:57:29;;;;;;;5.93;4.55;;;;;;;14.76;45.95;101496.25;4971818;28;20057;-61
2021/11/07 13:59:57;;;;;;;4.13;2.67;;;;;;;14.76;45.87;101486.53;4971757;28;20051;-60
2021/11/07 14:02:25;;;;;;;18.40;12.98;;;;;;;14.58;46.32;101479.72;4971019;28;20451;-60
2021/11/07 14:04:58;;;;;;;5.75;4.18;;;;;;;14.46;46.88;101486.59;4971466;28;20102;-60
2021/11/07 14:07:29;;;;;;;5.75;4.60;;;;;;;14.36;47.24;101478.41;4971779;28;20055;-58
2021/11/07 14:10:08;;;;;;;13.25;10.85;;;;;;;14.31;47.24;101485.72;4965842;28;20046;-58
2021/11/07 14:12:42;;;;;;;13.80;9.98;;;;;;;14.24;47.72;101479.13;4971622;28;20241;-60
2021/11/07 14:15:32;;;;;;;11.98;7.22;;;;;;;14.18;47.84;101481.22;4971303;28;20082;-59